sensor_id;sensor_type;location;lat;lon;timestamp;pressure;altitude;pressure_sealevel;temperature;humidity
13241;BME280;6687;47.790;7.322;2023-04-27T05:24:31;99089.31;;;12.57;73.23
13241;BME280;6687;47.790;7.322;2023-04-27T05:26:58;99083.19;;;12.67;72.71
13241;BME280;6687;47.790;7.322;2023-04-27T05:29:25;99086.72;;;12.60;72.81
13241;BME280;6687;47.790;7.322;2023-04-27T05:31:52;99084.88;;;12.80;72.08
13241;BME280;6687;47.790;7.322;2023-04-27T05:34:19;99086.53;;;12.93;71.04
13241;BME280;6687;47.790;7.322;2023-04-27T05:36:46;99082.16;;;13.02;70.14
13241;BME280;6687;47.790;7.322;2023-04-27T05:39:12;99084.69;;;13.14;69.40
13241;BME280;6687;47.790;7.322;2023-04-27T05:41:40;99091.53;;;13.26;68.60
13241;BME280;6687;47.790;7.322;2023-04-27T05:44:07;99088.88;;;13.37;69.64
13241;BME280;6687;47.790;7.322;2023-04-27T05:46:34;99082.75;;;13.47;69.28
13241;BME280;6687;47.790;7.322;2023-04-27T05:49:00;99091.31;;;13.58;68.51
13241;BME280;6687;47.790;7.322;2023-04-27T05:51:27;99088.69;;;13.63;68.53
13241;BME280;6687;47.790;7.322;2023-04-27T05:53:54;99088.59;;;13.72;68.03
13241;BME280;6687;47.790;7.322;2023-04-27T05:56:21;99096.34;;;13.78;67.07
13241;BME280;6687;47.790;7.322;2023-04-27T05:58:49;99090.94;;;14.01;67.79
13241;BME280;6687;47.790;7.322;2023-04-27T06:01:16;99094.31;;;14.12;66.33
13241;BME280;6687;47.790;7.322;2023-04-27T06:03:42;99102.91;;;14.21;64.93
13241;BME280;6687;47.790;7.322;2023-04-27T06:06:09;99094.06;;;14.34;65.18
13241;BME280;6687;47.790;7.322;2023-04-27T06:08:36;99098.25;;;14.46;64.80
13241;BME280;6687;47.790;7.322;2023-04-27T06:11:03;99103.38;;;14.53;65.07
13241;BME280;6687;47.790;7.322;2023-04-27T06:13:30;99098.09;;;14.64;65.23
13241;BME280;6687;47.790;7.322;2023-04-27T06:15:58;99093.69;;;14.68;63.83
13241;BME280;6687;47.790;7.322;2023-04-27T06:18:25;99104.00;;;14.77;62.91
13241;BME280;6687;47.790;7.322;2023-04-27T06:20:52;99109.50;;;14.52;60.65
13241;BME280;6687;47.790;7.322;2023-04-27T06:23:23;99106.41;;;14.93;62.26
13241;BME280;6687;47.790;7.322;2023-04-27T06:25:50;99110.06;;;14.79;60.00
13241;BME280;6687;47.790;7.322;2023-04-27T06:28:17;99108.00;;;15.03;59.78
13241;BME280;6687;47.790;7.322;2023-04-27T06:30:43;99108.69;;;15.17;61.02
13241;BME280;6687;47.790;7.322;2023-04-27T06:33:11;99109.47;;;15.22;60.03
13241;BME280;6687;47.790;7.322;2023-04-27T06:35:38;99110.16;;;15.34;61.41
13241;BME280;6687;47.790;7.322;2023-04-27T06:38:05;99111.78;;;15.44;61.50
13241;BME280;6687;47.790;7.322;2023-04-27T06:40:32;99111.69;;;15.50;60.93
13241;BME280;6687;47.790;7.322;2023-04-27T06:42:58;99114.25;;;15.51;61.02
13241;BME280;6687;47.790;7.322;2023-04-27T06:45:25;99121.06;;;15.62;59.46
13241;BME280;6687;47.790;7.322;2023-04-27T06:47:52;99112.34;;;15.61;58.65
13241;BME280;6687;47.790;7.322;2023-04-27T06:50:20;99111.19;;;15.25;56.37
13241;BME280;6687;47.790;7.322;2023-04-27T06:52:47;99122.88;;;15.57;55.82
13241;BME280;6687;47.790;7.322;2023-04-27T06:55:13;99111.78;;;15.44;55.27
13241;BME280;6687;47.790;7.322;2023-04-27T06:57:40;99121.97;;;15.59;55.25
13241;BME280;6687;47.790;7.322;2023-04-27T07:00:08;99118.81;;;15.95;57.36
13241;BME280;6687;47.790;7.322;2023-04-27T07:02:35;99117.84;;;16.00;57.76
13241;BME280;6687;47.790;7.322;2023-04-27T07:05:01;99115.91;;;16.12;58.03
13241;BME280;6687;47.790;7.322;2023-04-27T07:07:29;99113.88;;;16.26;57.88
13241;BME280;6687;47.790;7.322;2023-04-27T07:09:56;99112.25;;;16.19;57.52
13241;BME280;6687;47.790;7.322;2023-04-27T07:12:23;99114.00;;;16.20;53.81
13241;BME280;6687;47.790;7.322;2023-04-27T07:14:50;99112.53;;;16.52;55.68
13241;BME280;6687;47.790;7.322;2023-04-27T07:17:16;99115.06;;;16.55;55.12
13241;BME280;6687;47.790;7.322;2023-04-27T07:19:43;99114.81;;;16.67;56.57
13241;BME280;6687;47.790;7.322;2023-04-27T07:22:10;99104.28;;;16.70;56.69
13241;BME280;6687;47.790;7.322;2023-04-27T07:24:38;99101.44;;;16.81;56.62
13241;BME280;6687;47.790;7.322;2023-04-27T07:27:05;99104.22;;;16.73;53.02
13241;BME280;6687;47.790;7.322;2023-04-27T07:29:32;99087.91;;;17.04;54.09
13241;BME280;6687;47.790;7.322;2023-04-27T07:32:04;99098.09;;;17.16;55.57
13241;BME280;6687;47.790;7.322;2023-04-27T07:34:31;99092.56;;;17.28;55.96
13241;BME280;6687;47.790;7.322;2023-04-27T07:36:57;99096.81;;;17.33;56.03
13241;BME280;6687;47.790;7.322;2023-04-27T07:39:24;99090.34;;;17.49;56.20
13241;BME280;6687;47.790;7.322;2023-04-27T07:41:53;99095.34;;;17.58;55.23
13241;BME280;6687;47.790;7.322;2023-04-27T07:44:20;99101.06;;;17.74;54.76
13241;BME280;6687;47.790;7.322;2023-04-27T07:46:46;99098.63;;;17.66;51.32
13241;BME280;6687;47.790;7.322;2023-04-27T07:49:13;99103.31;;;17.91;48.95
13241;BME280;6687;47.790;7.322;2023-04-27T07:51:40;99098.50;;;17.73;48.49
13241;BME280;6687;47.790;7.322;2023-04-27T07:54:07;99101.19;;;18.05;49.86
13241;BME280;6687;47.790;7.322;2023-04-27T07:56:34;99098.72;;;17.99;52.04
13241;BME280;6687;47.790;7.322;2023-04-27T07:59:02;99092.81;;;18.24;53.94
13241;BME280;6687;47.790;7.322;2023-04-27T08:01:29;99090.34;;;18.18;54.02
13241;BME280;6687;47.790;7.322;2023-04-27T08:03:55;99093.47;;;18.32;52.94
13241;BME280;6687;47.790;7.322;2023-04-27T08:06:22;99092.00;;;18.53;51.27
13241;BME280;6687;47.790;7.322;2023-04-27T08:08:49;99081.44;;;18.56;47.86
13241;BME280;6687;47.790;7.322;2023-04-27T08:11:15;99083.47;;;18.76;48.13
13241;BME280;6687;47.790;7.322;2023-04-27T08:13:42;99089.47;;;18.81;54.89
13241;BME280;6687;47.790;7.322;2023-04-27T08:16:10;99083.19;;;18.87;55.40
13241;BME280;6687;47.790;7.322;2023-04-27T08:18:37;99083.66;;;19.00;53.66
13241;BME280;6687;47.790;7.322;2023-04-27T08:21:03;99089.56;;;19.08;46.10
13241;BME280;6687;47.790;7.322;2023-04-27T08:23:30;99083.13;;;19.45;47.07
13241;BME280;6687;47.790;7.322;2023-04-27T08:25:57;99084.13;;;19.14;52.55
13241;BME280;6687;47.790;7.322;2023-04-27T08:28:24;99077.78;;;19.48;53.82
13241;BME280;6687;47.790;7.322;2023-04-27T08:30:51;99079.00;;;19.38;52.89
13241;BME280;6687;47.790;7.322;2023-04-27T08:33:19;99078.00;;;19.42;52.73
13241;BME280;6687;47.790;7.322;2023-04-27T08:35:46;99072.41;;;19.51;52.26
13241;BME280;6687;47.790;7.322;2023-04-27T08:38:12;99062.63;;;19.83;52.08
13241;BME280;6687;47.790;7.322;2023-04-27T08:40:42;99067.41;;;19.70;43.71
13241;BME280;6687;47.790;7.322;2023-04-27T08:43:09;99067.44;;;19.95;53.80
13241;BME280;6687;47.790;7.322;2023-04-27T08:45:36;99063.78;;;20.24;53.90
13241;BME280;6687;47.790;7.322;2023-04-27T08:48:03;99066.69;;;20.17;53.09
13241;BME280;6687;47.790;7.322;2023-04-27T08:50:31;99071.31;;;20.35;53.82
13241;BME280;6687;47.790;7.322;2023-04-27T08:52:59;99070.44;;;20.60;52.05
13241;BME280;6687;47.790;7.322;2023-04-27T08:55:25;99065.97;;;20.62;42.83
13241;BME280;6687;47.790;7.322;2023-04-27T08:57:54;99070.84;;;20.95;42.93
13241;BME280;6687;47.790;7.322;2023-04-27T09:00:23;99067.69;;;21.31;50.84
13241;BME280;6687;47.790;7.322;2023-04-27T09:02:49;99079.22;;;21.28;51.09
13241;BME280;6687;47.790;7.322;2023-04-27T09:05:16;99072.50;;;21.43;51.04
13241;BME280;6687;47.790;7.322;2023-04-27T09:07:56;99074.53;;;21.79;50.15
13241;BME280;6687;47.790;7.322;2023-04-27T09:10:23;99070.41;;;21.51;49.54
13241;BME280;6687;47.790;7.322;2023-04-27T09:12:55;99080.88;;;21.75;49.54
13241;BME280;6687;47.790;7.322;2023-04-27T09:15:22;99080.50;;;22.04;49.25
13241;BME280;6687;47.790;7.322;2023-04-27T09:17:53;99082.75;;;22.34;49.62
13241;BME280;6687;47.790;7.322;2023-04-27T09:20:20;99083.88;;;22.48;45.96
13241;BME280;6687;47.790;7.322;2023-04-27T09:22:48;99076.56;;;22.73;42.78
13241;BME280;6687;47.790;7.322;2023-04-27T09:25:26;99073.34;;;22.67;44.41
13241;BME280;6687;47.790;7.322;2023-04-27T09:27:53;99070.06;;;22.61;46.63
13241;BME280;6687;47.790;7.322;2023-04-27T09:30:21;99069.91;;;22.83;48.86
13241;BME280;6687;47.790;7.322;2023-04-27T09:32:50;99069.91;;;23.04;48.97
13241;BME280;6687;47.790;7.322;2023-04-27T09:35:21;99072.38;;;23.07;47.08
13241;BME280;6687;47.790;7.322;2023-04-27T09:37:48;99069.91;;;23.21;47.00
13241;BME280;6687;47.790;7.322;2023-04-27T09:40:17;99069.91;;;23.21;46.19
13241;BME280;6687;47.790;7.322;2023-04-27T09:42:46;99065.44;;;23.41;46.00
13241;BME280;6687;47.790;7.322;2023-04-27T09:45:14;99064.22;;;23.12;37.43
13241;BME280;6687;47.790;7.322;2023-04-27T09:47:41;99061.13;;;23.40;35.64
13241;BME280;6687;47.790;7.322;2023-04-27T09:50:11;99063.38;;;23.48;44.29
13241;BME280;6687;47.790;7.322;2023-04-27T09:52:38;99059.59;;;23.88;42.35
13241;BME280;6687;47.790;7.322;2023-04-27T09:55:08;99055.94;;;24.08;38.86
13241;BME280;6687;47.790;7.322;2023-04-27T09:57:42;99055.38;;;23.67;44.15
13241;BME280;6687;47.790;7.322;2023-04-27T10:00:25;99061.38;;;23.70;37.73
13241;BME280;6687;47.790;7.322;2023-04-27T10:03:04;99043.09;;;23.83;38.04
13241;BME280;6687;47.790;7.322;2023-04-27T10:05:41;99052.38;;;24.25;43.29
13241;BME280;6687;47.790;7.322;2023-04-27T10:08:11;99048.47;;;24.32;42.75
13241;BME280;6687;47.790;7.322;2023-04-27T10:10:41;99040.91;;;24.42;33.97
13241;BME280;6687;47.790;7.322;2023-04-27T10:13:20;99045.34;;;24.41;41.88
13241;BME280;6687;47.790;7.322;2023-04-27T10:15:48;99044.06;;;24.49;34.91
13241;BME280;6687;47.790;7.322;2023-04-27T10:18:24;99037.63;;;24.86;34.82
13241;BME280;6687;47.790;7.322;2023-04-27T10:20:52;99042.59;;;25.08;37.60
13241;BME280;6687;47.790;7.322;2023-04-27T10:23:23;99036.94;;;24.83;40.35
13241;BME280;6687;47.790;7.322;2023-04-27T10:25:50;99038.47;;;25.18;32.54
13241;BME280;6687;47.790;7.322;2023-04-27T10:28:17;99045.63;;;25.48;34.82
13241;BME280;6687;47.790;7.322;2023-04-27T10:30:47;99044.66;;;25.35;32.79
13241;BME280;6687;47.790;7.322;2023-04-27T10:33:16;99039.44;;;26.08;32.12
13241;BME280;6687;47.790;7.322;2023-04-27T10:35:52;99040.13;;;25.97;29.74
13241;BME280;6687;47.790;7.322;2023-04-27T10:38:20;99036.34;;;25.71;31.79
13241;BME280;6687;47.790;7.322;2023-04-27T10:40:54;99042.59;;;26.01;30.09
13241;BME280;6687;47.790;7.322;2023-04-27T10:43:24;99035.56;;;25.99;32.42
13241;BME280;6687;47.790;7.322;2023-04-27T10:45:53;99029.59;;;26.53;37.44
13241;BME280;6687;47.790;7.322;2023-04-27T10:48:20;99023.09;;;26.30;31.28
13241;BME280;6687;47.790;7.322;2023-04-27T10:50:49;99022.72;;;25.47;29.75
13241;BME280;6687;47.790;7.322;2023-04-27T10:53:16;99017.97;;;25.83;29.35
13241;BME280;6687;47.790;7.322;2023-04-27T10:55:43;99014.06;;;25.74;31.49
13241;BME280;6687;47.790;7.322;2023-04-27T10:58:11;99011.94;;;25.18;30.55
13241;BME280;6687;47.790;7.322;2023-04-27T11:00:40;99010.28;;;25.78;31.54
13241;BME280;6687;47.790;7.322;2023-04-27T11:03:12;99009.50;;;25.62;30.38
13241;BME280;6687;47.790;7.322;2023-04-27T11:05:41;99000.09;;;25.26;30.07
13241;BME280;6687;47.790;7.322;2023-04-27T11:08:09;99003.78;;;25.07;30.27
13241;BME280;6687;47.790;7.322;2023-04-27T11:10:38;99000.88;;;24.64;34.36
13241;BME280;6687;47.790;7.322;2023-04-27T11:13:09;98994.97;;;25.53;30.89
13241;BME280;6687;47.790;7.322;2023-04-27T11:15:44;99001.72;;;24.96;30.15
13241;BME280;6687;47.790;7.322;2023-04-27T11:18:12;98993.06;;;25.99;32.49
13241;BME280;6687;47.790;7.322;2023-04-27T11:20:40;98998.59;;;25.96;30.82
13241;BME280;6687;47.790;7.322;2023-04-27T11:23:06;98992.22;;;25.99;31.15
13241;BME280;6687;47.790;7.322;2023-04-27T11:25:35;98984.72;;;26.49;36.64
13241;BME280;6687;47.790;7.322;2023-04-27T11:28:02;98984.81;;;26.62;33.59
13241;BME280;6687;47.790;7.322;2023-04-27T11:30:30;98977.00;;;26.73;37.89
13241;BME280;6687;47.790;7.322;2023-04-27T11:32:57;98974.38;;;27.00;37.56
13241;BME280;6687;47.790;7.322;2023-04-27T11:35:32;98974.50;;;27.26;30.79
13241;BME280;6687;47.790;7.322;2023-04-27T11:37:59;98973.56;;;27.12;29.21
13241;BME280;6687;47.790;7.322;2023-04-27T11:40:26;98973.81;;;27.22;27.62
13241;BME280;6687;47.790;7.322;2023-04-27T11:42:56;98973.03;;;27.47;26.82
13241;BME280;6687;47.790;7.322;2023-04-27T11:45:25;98968.81;;;27.57;34.98
13241;BME280;6687;47.790;7.322;2023-04-27T11:47:52;98973.03;;;27.47;26.73
13241;BME280;6687;47.790;7.322;2023-04-27T11:50:23;98977.91;;;27.93;30.93
13241;BME280;6687;47.790;7.322;2023-04-27T11:52:52;98968.78;;;27.83;37.04
13241;BME280;6687;47.790;7.322;2023-04-27T11:55:20;98971.22;;;27.21;27.69
13241;BME280;6687;47.790;7.322;2023-04-27T11:57:55;98970.00;;;28.05;27.17
13241;BME280;6687;47.790;7.322;2023-04-27T12:00:22;98971.19;;;28.13;39.64
13241;BME280;6687;47.790;7.322;2023-04-27T12:02:49;98970.31;;;28.13;40.43
13241;BME280;6687;47.790;7.322;2023-04-27T12:05:15;98959.53;;;27.76;27.78
13241;BME280;6687;47.790;7.322;2023-04-27T12:07:44;98969.44;;;27.74;37.90
13241;BME280;6687;47.790;7.322;2023-04-27T12:10:12;98957.34;;;27.95;37.65
13241;BME280;6687;47.790;7.322;2023-04-27T12:12:39;98963.78;;;28.17;38.15
13241;BME280;6687;47.790;7.322;2023-04-27T12:15:07;98954.75;;;28.20;38.77
13241;BME280;6687;47.790;7.322;2023-04-27T12:17:33;98957.53;;;27.80;33.05
13241;BME280;6687;47.790;7.322;2023-04-27T12:20:00;98957.94;;;27.86;39.56
13241;BME280;6687;47.790;7.322;2023-04-27T12:22:27;98949.00;;;27.87;40.33
13241;BME280;6687;47.790;7.322;2023-04-27T12:24:54;98947.16;;;27.75;40.17
13241;BME280;6687;47.790;7.322;2023-04-27T12:27:23;98940.88;;;27.63;40.27
13241;BME280;6687;47.790;7.322;2023-04-27T12:29:50;98932.06;;;27.10;35.55
13241;BME280;6687;47.790;7.322;2023-04-27T12:32:18;98934.50;;;27.40;36.54
13241;BME280;6687;47.790;7.322;2023-04-27T12:34:45;98939.81;;;27.53;39.32
13241;BME280;6687;47.790;7.322;2023-04-27T12:37:12;98944.41;;;27.64;40.27
13241;BME280;6687;47.790;7.322;2023-04-27T12:39:38;98939.38;;;27.06;26.56
13241;BME280;6687;47.790;7.322;2023-04-27T12:42:05;98944.38;;;27.38;39.30
13241;BME280;6687;47.790;7.322;2023-04-27T12:44:33;98939.59;;;27.43;34.72
13241;BME280;6687;47.790;7.322;2023-04-27T12:47:00;98934.38;;;27.67;38.18
13241;BME280;6687;47.790;7.322;2023-04-27T12:49:28;98930.56;;;27.84;39.18
13241;BME280;6687;47.790;7.322;2023-04-27T12:51:55;98941.75;;;27.64;30.61
13241;BME280;6687;47.790;7.322;2023-04-27T12:54:22;98935.59;;;27.89;32.85
13241;BME280;6687;47.790;7.322;2023-04-27T12:56:49;98928.69;;;28.36;30.57
13241;BME280;6687;47.790;7.322;2023-04-27T12:59:16;98928.09;;;28.69;36.84
13241;BME280;6687;47.790;7.322;2023-04-27T13:01:44;98930.69;;;28.82;37.90
13241;BME280;6687;47.790;7.322;2023-04-27T13:04:16;98934.88;;;28.36;38.00
13241;BME280;6687;47.790;7.322;2023-04-27T13:06:43;98925.06;;;28.98;36.15
13241;BME280;6687;47.790;7.322;2023-04-27T13:09:10;98928.44;;;29.13;35.92
13241;BME280;6687;47.790;7.322;2023-04-27T13:11:37;98925.94;;;29.34;32.66
13241;BME280;6687;47.790;7.322;2023-04-27T13:14:04;98927.19;;;29.41;24.83
13241;BME280;6687;47.790;7.322;2023-04-27T13:16:31;98921.72;;;30.01;33.02
13241;BME280;6687;47.790;7.322;2023-04-27T13:18:59;98914.19;;;29.94;31.79
13241;BME280;6687;47.790;7.322;2023-04-27T13:21:26;98911.72;;;30.14;26.67
13241;BME280;6687;47.790;7.322;2023-04-27T13:23:53;98914.19;;;29.94;35.92
13241;BME280;6687;47.790;7.322;2023-04-27T13:26:21;98910.66;;;30.39;24.44
13241;BME280;6687;47.790;7.322;2023-04-27T13:28:48;98905.63;;;30.57;22.36
13241;BME280;6687;47.790;7.322;2023-04-27T13:31:15;98893.56;;;30.63;34.10
13241;BME280;6687;47.790;7.322;2023-04-27T13:33:42;98898.13;;;30.40;31.19
13241;BME280;6687;47.790;7.322;2023-04-27T13:36:11;98908.28;;;30.68;33.45
13241;BME280;6687;47.790;7.322;2023-04-27T13:38:38;98905.66;;;30.12;22.61
13241;BME280;6687;47.790;7.322;2023-04-27T13:41:05;98902.03;;;29.79;22.16
13241;BME280;6687;47.790;7.322;2023-04-27T13:43:32;98905.63;;;30.57;23.11
13241;BME280;6687;47.790;7.322;2023-04-27T13:45:59;98906.16;;;30.06;21.84
13241;BME280;6687;47.790;7.322;2023-04-27T13:48:26;98914.09;;;29.49;22.35
13241;BME280;6687;47.790;7.322;2023-04-27T13:50:53;98903.38;;;29.27;22.65
13241;BME280;6687;47.790;7.322;2023-04-27T13:53:21;98895.19;;;29.64;29.44
13241;BME280;6687;47.790;7.322;2023-04-27T13:55:50;98894.72;;;30.04;22.34
13241;BME280;6687;47.790;7.322;2023-04-27T13:58:17;98897.13;;;29.62;22.15
13241;BME280;6687;47.790;7.322;2023-04-27T14:00:43;98887.28;;;30.30;24.63
13241;BME280;6687;47.790;7.322;2023-04-27T14:03:12;98897.63;;;30.46;28.86
13241;BME280;6687;47.790;7.322;2023-04-27T14:05:39;98890.69;;;30.55;34.33
13241;BME280;6687;47.790;7.322;2023-04-27T14:08:05;98895.94;;;30.45;35.08
13241;BME280;6687;47.790;7.322;2023-04-27T14:10:34;98895.63;;;30.70;32.91
13241;BME280;6687;47.790;7.322;2023-04-27T14:13:01;98887.06;;;30.22;35.84
13241;BME280;6687;47.790;7.322;2023-04-27T14:15:28;98887.69;;;28.63;23.62
13241;BME280;6687;47.790;7.322;2023-04-27T14:17:55;98874.25;;;28.64;23.19
13241;BME280;6687;47.790;7.322;2023-04-27T14:20:22;98876.16;;;28.62;23.86
13241;BME280;6687;47.790;7.322;2023-04-27T14:22:48;98879.75;;;28.74;22.79
13241;BME280;6687;47.790;7.322;2023-04-27T14:25:15;98869.19;;;29.43;23.83
13241;BME280;6687;47.790;7.322;2023-04-27T14:27:43;98873.41;;;29.34;21.91
13241;BME280;6687;47.790;7.322;2023-04-27T14:30:11;98873.34;;;30.15;33.32
13241;BME280;6687;47.790;7.322;2023-04-27T14:32:38;98873.56;;;30.23;33.07
13241;BME280;6687;47.790;7.322;2023-04-27T14:35:05;98870.88;;;30.46;31.91
13241;BME280;6687;47.790;7.322;2023-04-27T14:37:32;98870.34;;;29.97;29.62
13241;BME280;6687;47.790;7.322;2023-04-27T14:39:59;98867.28;;;30.24;33.89
13241;BME280;6687;47.790;7.322;2023-04-27T14:42:27;98857.28;;;30.38;22.25
13241;BME280;6687;47.790;7.322;2023-04-27T14:44:55;98863.72;;;30.46;21.63
13241;BME280;6687;47.790;7.322;2023-04-27T14:47:22;98867.13;;;30.92;29.99
13241;BME280;6687;47.790;7.322;2023-04-27T14:49:49;98862.84;;;30.89;33.80
13241;BME280;6687;47.790;7.322;2023-04-27T14:52:15;98861.19;;;30.66;23.77
13241;BME280;6687;47.790;7.322;2023-04-27T14:54:42;98856.94;;;30.31;23.39
13241;BME280;6687;47.790;7.322;2023-04-27T14:57:09;98855.09;;;30.43;23.86
13241;BME280;6687;47.790;7.322;2023-04-27T14:59:36;98856.44;;;30.69;32.80
13241;BME280;6687;47.790;7.322;2023-04-27T15:02:04;98855.34;;;30.40;31.26
13241;BME280;6687;47.790;7.322;2023-04-27T15:04:31;98847.47;;;30.38;33.89
13241;BME280;6687;47.790;7.322;2023-04-27T15:06:59;98836.56;;;30.83;34.12
13241;BME280;6687;47.790;7.322;2023-04-27T15:09:26;98831.41;;;30.70;34.29
13241;BME280;6687;47.790;7.322;2023-04-27T15:11:53;98827.34;;;30.55;22.02
13241;BME280;6687;47.790;7.322;2023-04-27T15:14:19;98828.31;;;30.10;22.39
13241;BME280;6687;47.790;7.322;2023-04-27T15:16:47;98823.25;;;30.40;29.70
13241;BME280;6687;47.790;7.322;2023-04-27T15:19:16;98828.69;;;30.49;34.19
13241;BME280;6687;47.790;7.322;2023-04-27T15:21:42;98812.56;;;30.72;30.92
13241;BME280;6687;47.790;7.322;2023-04-27T15:24:09;98811.97;;;30.68;22.26
13241;BME280;6687;47.790;7.322;2023-04-27T15:26:36;98815.09;;;30.52;21.23
13241;BME280;6687;47.790;7.322;2023-04-27T15:29:03;98811.88;;;30.91;21.77
13241;BME280;6687;47.790;7.322;2023-04-27T15:31:29;98808.00;;;29.40;21.30
13241;BME280;6687;47.790;7.322;2023-04-27T15:33:56;98810.88;;;28.68;21.65
13241;BME280;6687;47.790;7.322;2023-04-27T15:36:24;98810.34;;;28.51;21.95
13241;BME280;6687;47.790;7.322;2023-04-27T15:38:52;98804.59;;;29.15;22.17
13241;BME280;6687;47.790;7.322;2023-04-27T15:41:19;98810.34;;;28.63;22.13
13241;BME280;6687;47.790;7.322;2023-04-27T15:43:46;98809.22;;;29.70;32.80
13241;BME280;6687;47.790;7.322;2023-04-27T15:46:13;98805.22;;;29.98;23.09
13241;BME280;6687;47.790;7.322;2023-04-27T15:48:40;98798.56;;;30.47;28.24
13241;BME280;6687;47.790;7.322;2023-04-27T15:51:06;98792.69;;;30.53;22.88
13241;BME280;6687;47.790;7.322;2023-04-27T15:53:34;98791.53;;;29.69;21.02
13241;BME280;6687;47.790;7.322;2023-04-27T15:56:01;98786.13;;;30.79;21.84
13241;BME280;6687;47.790;7.322;2023-04-27T15:58:28;98779.69;;;30.60;20.12
13241;BME280;6687;47.790;7.322;2023-04-27T16:00:54;98778.28;;;30.98;27.72
13241;BME280;6687;47.790;7.322;2023-04-27T16:03:22;98780.50;;;30.82;21.42
13241;BME280;6687;47.790;7.322;2023-04-27T16:05:48;98777.56;;;29.54;20.56
13241;BME280;6687;47.790;7.322;2023-04-27T16:08:15;98780.53;;;31.24;21.54
13241;BME280;6687;47.790;7.322;2023-04-27T16:10:43;98780.59;;;30.91;20.65
13241;BME280;6687;47.790;7.322;2023-04-27T16:13:10;98777.16;;;31.22;21.39
13241;BME280;6687;47.790;7.322;2023-04-27T16:15:37;98779.09;;;30.13;19.69
13241;BME280;6687;47.790;7.322;2023-04-27T16:18:03;98781.25;;;30.30;26.90
13241;BME280;6687;47.790;7.322;2023-04-27T16:20:30;98784.59;;;30.44;21.74
13241;BME280;6687;47.790;7.322;2023-04-27T16:22:57;98794.69;;;29.63;20.44
13241;BME280;6687;47.790;7.322;2023-04-27T16:25:23;98783.91;;;30.84;20.05
13241;BME280;6687;47.790;7.322;2023-04-27T16:27:51;98786.34;;;30.22;22.84
13241;BME280;6687;47.790;7.322;2023-04-27T16:30:18;98778.72;;;31.03;20.12
13241;BME280;6687;47.790;7.322;2023-04-27T16:32:46;98775.47;;;30.67;20.45
13241;BME280;6687;47.790;7.322;2023-04-27T16:35:12;98774.88;;;29.20;21.24
13241;BME280;6687;47.790;7.322;2023-04-27T16:37:39;98778.41;;;29.66;20.93
13241;BME280;6687;47.790;7.322;2023-04-27T16:40:07;98775.75;;;29.32;20.90
13241;BME280;6687;47.790;7.322;2023-04-27T16:42:34;98779.88;;;29.59;21.63
13241;BME280;6687;47.790;7.322;2023-04-27T16:45:02;98777.69;;;29.30;20.79
13241;BME280;6687;47.790;7.322;2023-04-27T16:47:29;98775.69;;;28.14;22.99
13241;BME280;6687;47.790;7.322;2023-04-27T16:49:56;98775.41;;;26.79;24.71
13241;BME280;6687;47.790;7.322;2023-04-27T16:52:23;98777.88;;;27.21;23.73
13241;BME280;6687;47.790;7.322;2023-04-27T16:54:50;98779.38;;;27.12;24.32
13241;BME280;6687;47.790;7.322;2023-04-27T16:57:17;98783.94;;;26.85;25.22
13241;BME280;6687;47.790;7.322;2023-04-27T16:59:44;98797.69;;;26.10;26.25
13241;BME280;6687;47.790;7.322;2023-04-27T17:02:12;98795.00;;;25.83;26.59
13241;BME280;6687;47.790;7.322;2023-04-27T17:04:39;98797.75;;;25.67;26.43
13241;BME280;6687;47.790;7.322;2023-04-27T17:07:06;98795.84;;;25.83;26.65
13241;BME280;6687;47.790;7.322;2023-04-27T17:09:33;98788.16;;;25.64;26.31
13241;BME280;6687;47.790;7.322;2023-04-27T17:12:01;98791.09;;;26.03;26.84
13241;BME280;6687;47.790;7.322;2023-04-27T17:14:32;98792.78;;;26.04;25.96
13241;BME280;6687;47.790;7.322;2023-04-27T17:16:59;98791.25;;;26.41;32.11
13241;BME280;6687;47.790;7.322;2023-04-27T17:19:27;98787.72;;;26.41;33.71
13241;BME280;6687;47.790;7.322;2023-04-27T17:21:54;98782.41;;;26.13;33.00
13241;BME280;6687;47.790;7.322;2023-04-27T17:24:21;98776.34;;;26.38;33.89
13241;BME280;6687;47.790;7.322;2023-04-27T17:26:49;98780.75;;;26.25;29.92
13241;BME280;6687;47.790;7.322;2023-04-27T17:29:15;98777.50;;;25.37;32.98
13241;BME280;6687;47.790;7.322;2023-04-27T17:31:42;98778.19;;;24.96;28.20
13241;BME280;6687;47.790;7.322;2023-04-27T17:34:09;98788.63;;;24.22;28.15
13241;BME280;6687;47.790;7.322;2023-04-27T17:36:38;98788.59;;;24.38;28.76
13241;BME280;6687;47.790;7.322;2023-04-27T17:39:05;98799.72;;;24.29;30.53
13241;BME280;6687;47.790;7.322;2023-04-27T17:41:31;98802.97;;;23.87;29.62
13241;BME280;6687;47.790;7.322;2023-04-27T17:43:58;98809.47;;;23.81;30.27
13241;BME280;6687;47.790;7.322;2023-04-27T17:46:25;98808.16;;;23.39;30.61
13241;BME280;6687;47.790;7.322;2023-04-27T17:48:51;98800.66;;;23.47;31.27
13241;BME280;6687;47.790;7.322;2023-04-27T17:51:18;98798.59;;;23.70;30.94
13241;BME280;6687;47.790;7.322;2023-04-27T17:53:46;98805.19;;;23.45;31.27
13241;BME280;6687;47.790;7.322;2023-04-27T17:56:13;98803.53;;;23.27;31.57
13241;BME280;6687;47.790;7.322;2023-04-27T17:58:40;98799.06;;;23.45;32.81
13241;BME280;6687;47.790;7.322;2023-04-27T18:01:06;98804.72;;;23.70;31.28
13241;BME280;6687;47.790;7.322;2023-04-27T18:03:35;98801.88;;;23.57;31.64
13241;BME280;6687;47.790;7.322;2023-04-27T18:06:02;98801.94;;;23.07;31.94
13241;BME280;6687;47.790;7.322;2023-04-27T18:08:29;98799.41;;;22.51;32.52
13241;BME280;6687;47.790;7.322;2023-04-27T18:10:57;98794.38;;;22.99;32.28
13241;BME280;6687;47.790;7.322;2023-04-27T18:13:24;98787.53;;;22.95;31.96
13241;BME280;6687;47.790;7.322;2023-04-27T18:15:51;98781.88;;;22.85;31.61
13241;BME280;6687;47.790;7.322;2023-04-27T18:18:18;98797.50;;;22.72;32.96
13241;BME280;6687;47.790;7.322;2023-04-27T18:20:45;98796.56;;;23.08;35.40
13241;BME280;6687;47.790;7.322;2023-04-27T18:23:12;98797.97;;;22.98;33.17
13241;BME280;6687;47.790;7.322;2023-04-27T18:25:39;98792.97;;;22.92;34.02
13241;BME280;6687;47.790;7.322;2023-04-27T18:28:07;98798.47;;;22.70;33.00
13241;BME280;6687;47.790;7.322;2023-04-27T18:30:34;98796.41;;;22.59;33.63
13241;BME280;6687;47.790;7.322;2023-04-27T18:33:01;98799.47;;;22.13;33.42
13241;BME280;6687;47.790;7.322;2023-04-27T18:35:28;98800.72;;;21.87;34.42